Shaftsburg, Michigan
Current Conditions -  °F | °C
As of 12:53 PM on Monday 22 Dec 2014 (Local Time) from KLAN Reporting Station
Broken Clouds Broken Clouds  
Wind Chill: 29°   Ceiling: 10000
Heat Index: 37°   Visibility: 8mi
Dew Point: 27°   Wind: 12mph
Humidity: 67%   Direction: 120°ESE
Pressure: 29.95"   Gusts: NA
Location:  42.8°N, 84.29°W
Report Text: KLAN 221753Z 12010KT 8SM BKN100 03/M03 A2995 RMK AO2 SLP151 T00281028 10028 21028 58033
Loading
Personal Weather Stations






























Interactive Weather Map New forecast layout! Learn more

10-Day Weather Forecast

Advertisements
Track Severe Weather on mobile